sensor_id;sensor_type;location;lat;lon;timestamp;pressure;altitude;pressure_sealevel;temperature;humidity
66486;BME280;53303;47.476;8.084;2022-08-19T00:01:58;96172.22;;;23.81;56.98
66486;BME280;53303;47.476;8.084;2022-08-19T00:04:27;96172.22;;;23.87;56.99
66486;BME280;53303;47.476;8.084;2022-08-19T00:06:53;96166.13;;;23.88;56.84
66486;BME280;53303;47.476;8.084;2022-08-19T00:09:19;96164.84;;;23.89;56.82
66486;BME280;53303;47.476;8.084;2022-08-19T00:11:45;96169.16;;;23.90;57.17
66486;BME280;53303;47.476;8.084;2022-08-19T00:14:15;96163.88;;;23.87;56.74
66486;BME280;53303;47.476;8.084;2022-08-19T00:16:43;96167.41;;;23.87;56.72
66486;BME280;53303;47.476;8.084;2022-08-19T00:19:09;96168.91;;;23.88;56.99
66486;BME280;53303;47.476;8.084;2022-08-19T00:21:34;96157.03;;;23.82;56.74
66486;BME280;53303;47.476;8.084;2022-08-19T00:24:05;96167.41;;;23.87;56.58
66486;BME280;53303;47.476;8.084;2022-08-19T00:26:31;96161.81;;;23.87;56.91
66486;BME280;53303;47.476;8.084;2022-08-19T00:28:57;96167.16;;;23.85;56.94
66486;BME280;53303;47.476;8.084;2022-08-19T00:31:22;96167.94;;;23.80;56.92
66486;BME280;53303;47.476;8.084;2022-08-19T00:33:48;96169.69;;;23.77;56.97
66486;BME280;53303;47.476;8.084;2022-08-19T00:36:18;96178.81;;;23.84;56.80
66486;BME280;53303;47.476;8.084;2022-08-19T00:38:46;96173.25;;;23.84;56.79
66486;BME280;53303;47.476;8.084;2022-08-19T00:41:14;96175.03;;;23.81;56.99
66486;BME280;53303;47.476;8.084;2022-08-19T00:43:40;96179.09;;;23.80;56.82
66486;BME280;53303;47.476;8.084;2022-08-19T00:46:07;96176.78;;;23.84;56.84
66486;BME280;53303;47.476;8.084;2022-08-19T00:48:35;96177.06;;;23.81;56.95
66486;BME280;53303;47.476;8.084;2022-08-19T00:51:01;96168.69;;;23.75;56.66
66486;BME280;53303;47.476;8.084;2022-08-19T00:53:31;96166.16;;;23.83;56.84
66486;BME280;53303;47.476;8.084;2022-08-19T00:55:58;96154.25;;;23.76;56.70
66486;BME280;53303;47.476;8.084;2022-08-19T00:58:27;96159.81;;;23.82;56.65
66486;BME280;53303;47.476;8.084;2022-08-19T01:00:57;96159.09;;;23.82;56.75
66486;BME280;53303;47.476;8.084;2022-08-19T01:03:23;96154.25;;;23.82;56.62
66486;BME280;53303;47.476;8.084;2022-08-19T01:05:50;96148.19;;;23.78;56.78
66486;BME280;53303;47.476;8.084;2022-08-19T01:08:18;96153.75;;;23.78;57.03
66486;BME280;53303;47.476;8.084;2022-08-19T01:10:47;96159.09;;;23.82;56.85
66486;BME280;53303;47.476;8.084;2022-08-19T01:13:20;96155.00;;;23.77;56.84
66486;BME280;53303;47.476;8.084;2022-08-19T01:15:52;96159.09;;;23.82;56.73
66486;BME280;53303;47.476;8.084;2022-08-19T01:18:19;96155.50;;;23.81;56.74
66486;BME280;53303;47.476;8.084;2022-08-19T01:20:45;96146.13;;;23.79;56.76
66486;BME280;53303;47.476;8.084;2022-08-19T01:23:13;96140.84;;;23.81;56.68
66486;BME280;53303;47.476;8.084;2022-08-19T01:25:48;96137.78;;;23.79;56.46
66486;BME280;53303;47.476;8.084;2022-08-19T01:28:22;96132.97;;;23.79;56.71
66486;BME280;53303;47.476;8.084;2022-08-19T01:30:48;96129.94;;;23.77;56.78
66486;BME280;53303;47.476;8.084;2022-08-19T01:33:14;96126.91;;;23.75;56.76
66486;BME280;53303;47.476;8.084;2022-08-19T01:35:41;96137.03;;;23.78;56.64
66486;BME280;53303;47.476;8.084;2022-08-19T01:38:10;96139.56;;;23.82;56.82
66486;BME280;53303;47.476;8.084;2022-08-19T01:40:44;96126.16;;;23.69;56.64
66486;BME280;53303;47.476;8.084;2022-08-19T01:43:09;96140.09;;;23.80;56.88
66486;BME280;53303;47.476;8.084;2022-08-19T01:45:37;96137.53;;;23.76;56.84
66486;BME280;53303;47.476;8.084;2022-08-19T01:48:05;96136.25;;;23.77;56.89
66486;BME280;53303;47.476;8.084;2022-08-19T01:50:32;96145.38;;;23.78;57.02
66486;BME280;53303;47.476;8.084;2022-08-19T01:52:58;96139.31;;;23.74;57.05
66486;BME280;53303;47.476;8.084;2022-08-19T01:55:26;96146.19;;;23.73;57.16
66486;BME280;53303;47.476;8.084;2022-08-19T01:57:56;96144.66;;;23.72;57.04
66486;BME280;53303;47.476;8.084;2022-08-19T02:00:24;96145.91;;;23.76;56.98
66486;BME280;53303;47.476;8.084;2022-08-19T02:02:51;96145.13;;;23.76;57.27
66486;BME280;53303;47.476;8.084;2022-08-19T02:05:17;96151.47;;;23.76;57.21
66486;BME280;53303;47.476;8.084;2022-08-19T02:07:46;96146.69;;;23.71;57.27
66486;BME280;53303;47.476;8.084;2022-08-19T02:10:14;96144.41;;;23.70;57.14
66486;BME280;53303;47.476;8.084;2022-08-19T02:12:40;96139.34;;;23.68;57.13
66486;BME280;53303;47.476;8.084;2022-08-19T02:15:08;96144.41;;;23.70;57.17
66486;BME280;53303;47.476;8.084;2022-08-19T02:17:34;96144.88;;;23.74;57.08
66486;BME280;53303;47.476;8.084;2022-08-19T02:19:59;96149.47;;;23.71;57.33
66486;BME280;53303;47.476;8.084;2022-08-19T02:22:26;96137.84;;;23.67;57.29
66486;BME280;53303;47.476;8.084;2022-08-19T02:24:54;96139.81;;;23.72;57.23
66486;BME280;53303;47.476;8.084;2022-08-19T02:27:21;96137.03;;;23.72;57.17
66486;BME280;53303;47.476;8.084;2022-08-19T02:29:48;96141.91;;;23.66;57.29
66486;BME280;53303;47.476;8.084;2022-08-19T02:32:17;96147.44;;;23.72;57.10
66486;BME280;53303;47.476;8.084;2022-08-19T02:34:47;96138.38;;;23.66;57.30
66486;BME280;53303;47.476;8.084;2022-08-19T02:37:13;96139.59;;;23.70;57.46
66486;BME280;53303;47.476;8.084;2022-08-19T02:39:58;96143.66;;;23.69;57.50
66486;BME280;53303;47.476;8.084;2022-08-19T02:42:24;96126.97;;;23.64;57.55
66486;BME280;53303;47.476;8.084;2022-08-19T02:44:50;96140.09;;;23.69;57.35
66486;BME280;53303;47.476;8.084;2022-08-19T02:47:18;96147.72;;;23.68;57.19
66486;BME280;53303;47.476;8.084;2022-08-19T02:49:44;96140.91;;;23.64;57.33
66486;BME280;53303;47.476;8.084;2022-08-19T02:52:10;96149.75;;;23.68;56.98
66486;BME280;53303;47.476;8.084;2022-08-19T02:54:38;96147.50;;;23.61;57.12
66486;BME280;53303;47.476;8.084;2022-08-19T02:57:04;96151.00;;;23.67;56.92
66486;BME280;53303;47.476;8.084;2022-08-19T02:59:30;96137.91;;;23.56;56.78
66486;BME280;53303;47.476;8.084;2022-08-19T03:01:56;96141.19;;;23.60;56.95
66486;BME280;53303;47.476;8.084;2022-08-19T03:04:21;96159.88;;;23.65;57.10
66486;BME280;53303;47.476;8.084;2022-08-19T03:06:48;96160.13;;;23.67;57.01
66486;BME280;53303;47.476;8.084;2022-08-19T03:09:14;96162.94;;;23.67;56.94
66486;BME280;53303;47.476;8.084;2022-08-19T03:11:40;96166.00;;;23.64;57.15
66486;BME280;53303;47.476;8.084;2022-08-19T03:14:07;96167.72;;;23.67;57.04
66486;BME280;53303;47.476;8.084;2022-08-19T03:16:40;96175.34;;;23.66;57.04
66486;BME280;53303;47.476;8.084;2022-08-19T03:19:06;96173.84;;;23.60;56.97
66486;BME280;53303;47.476;8.084;2022-08-19T03:21:33;96172.31;;;23.64;56.72
66486;BME280;53303;47.476;8.084;2022-08-19T03:24:01;96179.38;;;23.65;56.71
66486;BME280;53303;47.476;8.084;2022-08-19T03:26:27;96174.84;;;23.62;56.60
66486;BME280;53303;47.476;8.084;2022-08-19T03:28:53;96178.63;;;23.65;56.73
66486;BME280;53303;47.476;8.084;2022-08-19T03:31:20;96165.22;;;23.63;56.50
66486;BME280;53303;47.476;8.084;2022-08-19T03:33:48;96175.09;;;23.64;56.58
66486;BME280;53303;47.476;8.084;2022-08-19T03:36:25;96162.44;;;23.57;56.43
66486;BME280;53303;47.476;8.084;2022-08-19T03:38:54;96161.44;;;23.61;56.57
66486;BME280;53303;47.476;8.084;2022-08-19T03:41:24;96164.97;;;23.61;56.33
66486;BME280;53303;47.476;8.084;2022-08-19T03:43:52;96151.31;;;23.57;56.50
66486;BME280;53303;47.476;8.084;2022-08-19T03:46:23;96162.69;;;23.60;56.33
66486;BME280;53303;47.476;8.084;2022-08-19T03:48:53;96156.38;;;23.59;56.14
66486;BME280;53303;47.476;8.084;2022-08-19T03:53:47;96156.13;;;23.57;56.31
66486;BME280;53303;47.476;8.084;2022-08-19T03:56:14;96154.88;;;23.52;56.20
66486;BME280;53303;47.476;8.084;2022-08-19T03:58:40;96166.78;;;23.53;56.28
66486;BME280;53303;47.476;8.084;2022-08-19T04:01:10;96174.63;;;23.54;56.21
66486;BME280;53303;47.476;8.084;2022-08-19T04:03:36;96174.63;;;23.54;56.40
66486;BME280;53303;47.476;8.084;2022-08-19T04:06:16;96170.09;;;23.51;56.50
66486;BME280;53303;47.476;8.084;2022-08-19T04:08:43;96174.88;;;23.56;56.52
66486;BME280;53303;47.476;8.084;2022-08-19T04:11:12;96161.97;;;23.53;56.84
66486;BME280;53303;47.476;8.084;2022-08-19T04:13:41;96171.28;;;23.62;56.54
66486;BME280;53303;47.476;8.084;2022-08-19T04:16:10;96173.56;;;23.63;56.50
66486;BME280;53303;47.476;8.084;2022-08-19T04:18:39;96179.13;;;23.63;56.44
66486;BME280;53303;47.476;8.084;2022-08-19T04:21:06;96178.16;;;23.61;56.31
66486;BME280;53303;47.476;8.084;2022-08-19T04:23:33;96190.03;;;23.61;56.31
66486;BME280;53303;47.476;8.084;2022-08-19T04:25:59;96186.25;;;23.59;56.43
66486;BME280;53303;47.476;8.084;2022-08-19T04:28:25;96190.31;;;23.57;56.53
66486;BME280;53303;47.476;8.084;2022-08-19T04:30:54;96193.09;;;23.57;56.41
66486;BME280;53303;47.476;8.084;2022-08-19T04:33:22;96179.22;;;23.46;56.54
66486;BME280;53303;47.476;8.084;2022-08-19T04:35:50;96201.44;;;23.57;56.49
66486;BME280;53303;47.476;8.084;2022-08-19T04:38:20;96199.94;;;23.56;56.47
66486;BME280;53303;47.476;8.084;2022-08-19T04:40:49;96195.41;;;23.53;56.38
66486;BME280;53303;47.476;8.084;2022-08-19T04:43:35;96205.53;;;23.56;56.41
66486;BME280;53303;47.476;8.084;2022-08-19T04:46:10;96189.59;;;23.51;56.45
66486;BME280;53303;47.476;8.084;2022-08-19T04:48:36;96189.31;;;23.49;56.37
66486;BME280;53303;47.476;8.084;2022-08-19T04:51:07;96203.25;;;23.55;56.48
66486;BME280;53303;47.476;8.084;2022-08-19T04:53:37;96208.81;;;23.55;56.35
66486;BME280;53303;47.476;8.084;2022-08-19T04:56:09;96206.53;;;23.53;56.37
66486;BME280;53303;47.476;8.084;2022-08-19T04:58:35;96205.00;;;23.52;56.44
66486;BME280;53303;47.476;8.084;2022-08-19T05:01:02;96207.81;;;23.52;56.49
66486;BME280;53303;47.476;8.084;2022-08-19T05:03:28;96208.81;;;23.49;56.43
66486;BME280;53303;47.476;8.084;2022-08-19T05:06:09;96207.81;;;23.52;56.43
66486;BME280;53303;47.476;8.084;2022-08-19T05:08:36;96204.78;;;23.50;56.38
66486;BME280;53303;47.476;8.084;2022-08-19T05:11:08;96211.88;;;23.51;56.44
66486;BME280;53303;47.476;8.084;2022-08-19T05:13:34;96209.63;;;23.44;56.47
66486;BME280;53303;47.476;8.084;2022-08-19T05:16:00;96225.03;;;23.51;56.39
66486;BME280;53303;47.476;8.084;2022-08-19T05:18:26;96220.75;;;23.50;56.45
66486;BME280;53303;47.476;8.084;2022-08-19T05:21:13;96226.81;;;23.48;56.44
66486;BME280;53303;47.476;8.084;2022-08-19T05:24:06;96234.41;;;23.48;56.51
66486;BME280;53303;47.476;8.084;2022-08-19T05:26:38;96231.63;;;23.48;56.35
66486;BME280;53303;47.476;8.084;2022-08-19T05:29:05;96226.81;;;23.48;56.44
66486;BME280;53303;47.476;8.084;2022-08-19T05:31:31;96226.06;;;23.48;56.42
66486;BME280;53303;47.476;8.084;2022-08-19T05:33:57;96236.44;;;23.47;56.35
66486;BME280;53303;47.476;8.084;2022-08-19T05:36:27;96240.75;;;23.48;56.39
66486;BME280;53303;47.476;8.084;2022-08-19T05:38:53;96237.72;;;23.46;56.48
66486;BME280;53303;47.476;8.084;2022-08-19T05:41:20;96233.41;;;23.40;56.46
66486;BME280;53303;47.476;8.084;2022-08-19T05:43:46;96237.97;;;23.43;56.45
66486;BME280;53303;47.476;8.084;2022-08-19T05:46:20;96252.66;;;23.43;56.57
66486;BME280;53303;47.476;8.084;2022-08-19T05:48:47;96243.78;;;23.45;56.50
66486;BME280;53303;47.476;8.084;2022-08-19T05:51:14;96240.75;;;23.43;56.35
66486;BME280;53303;47.476;8.084;2022-08-19T05:53:41;96251.63;;;23.46;56.36
66486;BME280;53303;47.476;8.084;2022-08-19T05:56:10;96258.47;;;23.45;56.47
66486;BME280;53303;47.476;8.084;2022-08-19T05:58:37;96258.47;;;23.45;56.55
66486;BME280;53303;47.476;8.084;2022-08-19T06:01:12;96249.38;;;23.45;56.35
66486;BME280;53303;47.476;8.084;2022-08-19T06:03:38;96245.56;;;23.42;56.41
66486;BME280;53303;47.476;8.084;2022-08-19T06:06:05;96241.00;;;23.45;56.49
66486;BME280;53303;47.476;8.084;2022-08-19T06:08:32;96244.53;;;23.45;56.55
66486;BME280;53303;47.476;8.084;2022-08-19T06:13:43;96247.84;;;23.44;56.78
66486;BME280;53303;47.476;8.084;2022-08-19T06:16:08;96253.16;;;23.42;56.70
66486;BME280;53303;47.476;8.084;2022-08-19T06:18:34;96256.72;;;23.36;56.67
66486;BME280;53303;47.476;8.084;2022-08-19T06:20:59;96261.50;;;23.42;56.77
66486;BME280;53303;47.476;8.084;2022-08-19T06:23:28;96254.72;;;23.37;56.58
66486;BME280;53303;47.476;8.084;2022-08-19T06:25:54;96244.31;;;23.37;56.84
66486;BME280;53303;47.476;8.084;2022-08-19T06:28:22;96265.31;;;23.38;56.86
66486;BME280;53303;47.476;8.084;2022-08-19T06:30:49;96261.78;;;23.38;57.11
66486;BME280;53303;47.476;8.084;2022-08-19T06:33:16;96261.53;;;23.36;57.05
66486;BME280;53303;47.476;8.084;2022-08-19T06:35:41;96269.13;;;23.41;57.14
66486;BME280;53303;47.476;8.084;2022-08-19T06:38:09;96263.31;;;23.39;56.94
66486;BME280;53303;47.476;8.084;2022-08-19T06:40:35;96266.34;;;23.41;56.88
66486;BME280;53303;47.476;8.084;2022-08-19T06:43:03;96269.13;;;23.41;57.09
66486;BME280;53303;47.476;8.084;2022-08-19T06:45:28;96257.50;;;23.37;57.12
66486;BME280;53303;47.476;8.084;2022-08-19T06:47:55;96258.00;;;23.35;56.88
66486;BME280;53303;47.476;8.084;2022-08-19T06:50:22;96262.81;;;23.41;56.84
66486;BME280;53303;47.476;8.084;2022-08-19T06:52:48;96269.63;;;23.40;56.85
66486;BME280;53303;47.476;8.084;2022-08-19T06:55:14;96271.16;;;23.41;57.16
66486;BME280;53303;47.476;8.084;2022-08-19T06:57:40;96275.94;;;23.40;57.03
66486;BME280;53303;47.476;8.084;2022-08-19T07:00:08;96272.16;;;23.37;56.93
66486;BME280;53303;47.476;8.084;2022-08-19T07:02:40;96279.28;;;23.22;57.39
66486;BME280;53303;47.476;8.084;2022-08-19T07:05:06;96275.97;;;23.34;57.17
66486;BME280;53303;47.476;8.084;2022-08-19T07:07:31;96284.56;;;23.36;56.91
66486;BME280;53303;47.476;8.084;2022-08-19T07:10:01;96288.88;;;23.37;57.07
66486;BME280;53303;47.476;8.084;2022-08-19T07:12:29;96285.06;;;23.35;57.11
66486;BME280;53303;47.476;8.084;2022-08-19T07:14:57;96297.47;;;23.40;57.32
66486;BME280;53303;47.476;8.084;2022-08-19T07:17:23;96295.69;;;23.36;57.15
66486;BME280;53303;47.476;8.084;2022-08-19T07:19:48;96293.16;;;23.38;57.14
66486;BME280;53303;47.476;8.084;2022-08-19T07:22:15;96279.78;;;23.37;56.89
66486;BME280;53303;47.476;8.084;2022-08-19T07:24:41;96283.06;;;23.35;57.08
66486;BME280;53303;47.476;8.084;2022-08-19T07:27:06;96282.03;;;23.38;56.84
66486;BME280;53303;47.476;8.084;2022-08-19T07:29:34;96292.91;;;23.42;57.06
66486;BME280;53303;47.476;8.084;2022-08-19T07:32:01;96282.03;;;23.38;57.14
66486;BME280;53303;47.476;8.084;2022-08-19T07:34:30;96294.69;;;23.40;56.91
66486;BME280;53303;47.476;8.084;2022-08-19T07:36:56;96291.91;;;23.40;57.22
66486;BME280;53303;47.476;8.084;2022-08-19T07:39:28;96286.59;;;23.36;57.26
66486;BME280;53303;47.476;8.084;2022-08-19T07:41:55;96284.06;;;23.38;57.10
66486;BME280;53303;47.476;8.084;2022-08-19T07:44:21;96296.97;;;23.41;57.22
66486;BME280;53303;47.476;8.084;2022-08-19T07:46:51;96290.13;;;23.36;57.00
66486;BME280;53303;47.476;8.084;2022-08-19T07:49:17;96296.97;;;23.41;56.82
66486;BME280;53303;47.476;8.084;2022-08-19T07:51:46;96296.72;;;23.39;56.91
66486;BME280;53303;47.476;8.084;2022-08-19T07:54:12;96293.44;;;23.41;57.09
66486;BME280;53303;47.476;8.084;2022-08-19T07:56:40;96301.25;;;23.42;57.08
66486;BME280;53303;47.476;8.084;2022-08-19T07:59:06;96292.16;;;23.36;56.91
66486;BME280;53303;47.476;8.084;2022-08-19T08:01:33;96297.72;;;23.42;56.90
66486;BME280;53303;47.476;8.084;2022-08-19T08:03:58;96302.28;;;23.39;56.76
66486;BME280;53303;47.476;8.084;2022-08-19T08:06:42;96305.84;;;23.40;57.04
66486;BME280;53303;47.476;8.084;2022-08-19T08:09:33;96303.78;;;23.40;56.96
66486;BME280;53303;47.476;8.084;2022-08-19T08:14:44;96308.63;;;23.40;57.04
66486;BME280;53303;47.476;8.084;2022-08-19T08:17:15;96319.50;;;23.43;56.96
66486;BME280;53303;47.476;8.084;2022-08-19T08:19:41;96318.25;;;23.44;57.10
66486;BME280;53303;47.476;8.084;2022-08-19T08:22:09;96315.97;;;23.43;56.83
66486;BME280;53303;47.476;8.084;2022-08-19T08:24:55;96323.28;;;23.40;56.97
66486;BME280;53303;47.476;8.084;2022-08-19T08:27:23;96328.09;;;23.45;56.97
66486;BME280;53303;47.476;8.084;2022-08-19T08:29:49;96328.84;;;23.46;56.71
66486;BME280;53303;47.476;8.084;2022-08-19T08:32:14;96321.53;;;23.43;56.82
66486;BME280;53303;47.476;8.084;2022-08-19T08:34:40;96329.38;;;23.44;56.97
66486;BME280;53303;47.476;8.084;2022-08-19T08:37:05;96321.28;;;23.41;56.85
66486;BME280;53303;47.476;8.084;2022-08-19T08:39:30;96328.09;;;23.45;56.66
66486;BME280;53303;47.476;8.084;2022-08-19T08:42:19;96330.38;;;23.41;56.69
66486;BME280;53303;47.476;8.084;2022-08-19T08:44:58;96328.88;;;23.40;56.71
66486;BME280;53303;47.476;8.084;2022-08-19T08:47:29;96342.78;;;23.46;56.41
66486;BME280;53303;47.476;8.084;2022-08-19T08:50:02;96351.38;;;23.42;56.48
66486;BME280;53303;47.476;8.084;2022-08-19T08:52:31;96363.28;;;23.48;56.57
66486;BME280;53303;47.476;8.084;2022-08-19T08:55:04;96353.66;;;23.44;56.44
66486;BME280;53303;47.476;8.084;2022-08-19T09:00:01;96353.19;;;23.40;56.47
66486;BME280;53303;47.476;8.084;2022-08-19T09:02:29;96359.25;;;23.44;56.74
66486;BME280;53303;47.476;8.084;2022-08-19T09:04:54;96362.53;;;23.42;56.55
66486;BME280;53303;47.476;8.084;2022-08-19T09:09:50;96382.03;;;23.48;56.52
66486;BME280;53303;47.476;8.084;2022-08-19T09:12:39;96387.09;;;23.44;56.55
66486;BME280;53303;47.476;8.084;2022-08-19T09:15:12;96381.53;;;23.44;56.57
66486;BME280;53303;47.476;8.084;2022-08-19T09:17:41;96384.81;;;23.48;56.69
66486;BME280;53303;47.476;8.084;2022-08-19T09:22:40;96396.97;;;23.50;56.50
66486;BME280;53303;47.476;8.084;2022-08-19T09:25:10;96398.22;;;23.49;56.55
66486;BME280;53303;47.476;8.084;2022-08-19T09:27:37;96394.94;;;23.51;56.44
66486;BME280;53303;47.476;8.084;2022-08-19T09:30:05;96395.72;;;23.51;56.29
66486;BME280;53303;47.476;8.084;2022-08-19T09:32:30;96397.97;;;23.47;56.39
66486;BME280;53303;47.476;8.084;2022-08-19T09:34:56;96393.69;;;23.46;56.35
66486;BME280;53303;47.476;8.084;2022-08-19T09:37:26;96393.69;;;23.46;56.30
66486;BME280;53303;47.476;8.084;2022-08-19T09:39:52;96394.44;;;23.52;56.26
66486;BME280;53303;47.476;8.084;2022-08-19T09:42:17;96396.47;;;23.52;56.30
66486;BME280;53303;47.476;8.084;2022-08-19T09:44:43;96395.22;;;23.53;56.26
66486;BME280;53303;47.476;8.084;2022-08-19T09:47:10;96403.81;;;23.55;56.33
66486;BME280;53303;47.476;8.084;2022-08-19T09:49:37;96403.03;;;23.54;56.21
66486;BME280;53303;47.476;8.084;2022-08-19T09:52:04;96410.13;;;23.55;56.34
66486;BME280;53303;47.476;8.084;2022-08-19T09:54:30;96407.09;;;23.53;56.30
66486;BME280;53303;47.476;8.084;2022-08-19T09:56:58;96408.59;;;23.54;56.33
66486;BME280;53303;47.476;8.084;2022-08-19T09:59:25;96400.25;;;23.49;56.58
66486;BME280;53303;47.476;8.084;2022-08-19T10:01:51;96403.03;;;23.49;56.64
66486;BME280;53303;47.476;8.084;2022-08-19T10:04:16;96408.13;;;23.50;56.51
66486;BME280;53303;47.476;8.084;2022-08-19T10:06:42;96413.94;;;23.52;56.67
66486;BME280;53303;47.476;8.084;2022-08-19T10:09:09;96416.22;;;23.54;56.30
66486;BME280;53303;47.476;8.084;2022-08-19T10:11:38;96401.28;;;23.40;56.20
66486;BME280;53303;47.476;8.084;2022-08-19T10:14:05;96422.53;;;23.54;56.40
66486;BME280;53303;47.476;8.084;2022-08-19T10:16:36;96411.16;;;23.52;56.22
66486;BME280;53303;47.476;8.084;2022-08-19T10:19:02;96421.28;;;23.55;56.30
66486;BME280;53303;47.476;8.084;2022-08-19T10:21:31;96421.53;;;23.57;56.54
66486;BME280;53303;47.476;8.084;2022-08-19T10:24:00;96412.16;;;23.55;56.64
66486;BME280;53303;47.476;8.084;2022-08-19T10:26:31;96416.22;;;23.54;56.60
66486;BME280;53303;47.476;8.084;2022-08-19T10:28:57;96423.06;;;23.59;56.75
66486;BME280;53303;47.476;8.084;2022-08-19T10:31:26;96426.09;;;23.61;56.64
66486;BME280;53303;47.476;8.084;2022-08-19T10:33:52;96424.81;;;23.62;56.86
66486;BME280;53303;47.476;8.084;2022-08-19T10:36:27;96420.03;;;23.56;56.76
66486;BME280;53303;47.476;8.084;2022-08-19T10:38:56;96431.91;;;23.63;56.93
66486;BME280;53303;47.476;8.084;2022-08-19T10:41:26;96423.56;;;23.63;56.91
66486;BME280;53303;47.476;8.084;2022-08-19T10:43:53;96419.50;;;23.64;56.67
66486;BME280;53303;47.476;8.084;2022-08-19T10:46:21;96423.06;;;23.64;56.75
66486;BME280;53303;47.476;8.084;2022-08-19T10:48:47;96416.97;;;23.66;56.58
66486;BME280;53303;47.476;8.084;2022-08-19T10:51:16;96422.03;;;23.67;56.88
66486;BME280;53303;47.476;8.084;2022-08-19T10:54:00;96418.22;;;23.70;57.31
66486;BME280;53303;47.476;8.084;2022-08-19T10:56:27;96414.44;;;23.73;57.11
66486;BME280;53303;47.476;8.084;2022-08-19T10:59:11;96411.13;;;23.75;57.06
66486;BME280;53303;47.476;8.084;2022-08-19T11:01:42;96409.84;;;23.76;57.41
66486;BME280;53303;47.476;8.084;2022-08-19T11:04:08;96417.75;;;23.83;57.51
66486;BME280;53303;47.476;8.084;2022-08-19T11:06:41;96416.72;;;23.86;57.32
66486;BME280;53303;47.476;8.084;2022-08-19T11:09:09;96420.75;;;23.91;57.29
66486;BME280;53303;47.476;8.084;2022-08-19T11:11:35;96412.41;;;23.91;57.25
66486;BME280;53303;47.476;8.084;2022-08-19T11:14:12;96422.28;;;23.98;57.21
66486;BME280;53303;47.476;8.084;2022-08-19T11:16:38;96429.34;;;23.99;57.50
66486;BME280;53303;47.476;8.084;2022-08-19T11:19:04;96427.84;;;24.03;57.33
66486;BME280;53303;47.476;8.084;2022-08-19T11:21:36;96421.75;;;24.05;57.38
66486;BME280;53303;47.476;8.084;2022-08-19T11:24:09;96420.97;;;24.04;57.70
66486;BME280;53303;47.476;8.084;2022-08-19T11:26:35;96429.31;;;24.10;58.19
66486;BME280;53303;47.476;8.084;2022-08-19T11:29:02;96438.19;;;24.14;58.17
66486;BME280;53303;47.476;8.084;2022-08-19T11:31:30;96439.19;;;24.17;58.67
66486;BME280;53303;47.476;8.084;2022-08-19T11:34:01;96442.75;;;24.17;58.35
66486;BME280;53303;47.476;8.084;2022-08-19T11:36:30;96438.19;;;24.20;58.44
66486;BME280;53303;47.476;8.084;2022-08-19T11:38:57;96443.25;;;24.21;58.94
66486;BME280;53303;47.476;8.084;2022-08-19T11:41:24;96437.91;;;24.23;59.19
66486;BME280;53303;47.476;8.084;2022-08-19T11:43:53;96432.59;;;24.25;59.27
66486;BME280;53303;47.476;8.084;2022-08-19T11:46:21;96437.16;;;24.28;59.78
66486;BME280;53303;47.476;8.084;2022-08-19T11:48:48;96441.44;;;24.29;59.29
66486;BME280;53303;47.476;8.084;2022-08-19T11:51:18;96442.22;;;24.30;58.85
66486;BME280;53303;47.476;8.084;2022-08-19T11:53:44;96446.03;;;24.27;58.72
66486;BME280;53303;47.476;8.084;2022-08-19T11:56:11;96443.72;;;24.31;58.71
66486;BME280;53303;47.476;8.084;2022-08-19T11:58:37;96447.00;;;24.29;58.57
66486;BME280;53303;47.476;8.084;2022-08-19T12:01:16;96453.63;;;24.32;58.53
66486;BME280;53303;47.476;8.084;2022-08-19T12:03:43;96452.59;;;24.29;58.94
66486;BME280;53303;47.476;8.084;2022-08-19T12:06:13;96462.22;;;24.34;59.22
66486;BME280;53303;47.476;8.084;2022-08-19T12:08:40;96457.41;;;24.35;59.58
66486;BME280;53303;47.476;8.084;2022-08-19T12:11:05;96450.81;;;24.32;59.78
66486;BME280;53303;47.476;8.084;2022-08-19T12:13:34;96443.97;;;24.39;60.09
66486;BME280;53303;47.476;8.084;2022-08-19T12:15:59;96443.19;;;24.38;60.38
66486;BME280;53303;47.476;8.084;2022-08-19T12:18:25;96452.81;;;24.43;60.39
66486;BME280;53303;47.476;8.084;2022-08-19T12:20:52;96442.66;;;24.45;60.06
66486;BME280;53303;47.476;8.084;2022-08-19T12:23:20;96438.59;;;24.46;59.96
66486;BME280;53303;47.476;8.084;2022-08-19T12:25:47;96448.75;;;24.49;59.80
66486;BME280;53303;47.476;8.084;2022-08-19T12:28:21;96443.91;;;24.50;60.14
66486;BME280;53303;47.476;8.084;2022-08-19T12:30:48;96442.91;;;24.53;60.74
66486;BME280;53303;47.476;8.084;2022-08-19T12:33:16;96437.59;;;24.49;60.68
66486;BME280;53303;47.476;8.084;2022-08-19T12:35:42;96448.22;;;24.57;60.40
66486;BME280;53303;47.476;8.084;2022-08-19T12:38:09;96438.84;;;24.54;60.61
66486;BME280;53303;47.476;8.084;2022-08-19T12:40:35;96446.91;;;24.63;60.84
66486;BME280;53303;47.476;8.084;2022-08-19T12:43:00;96447.44;;;24.67;59.61
66486;BME280;53303;47.476;8.084;2022-08-19T12:45:26;96443.38;;;24.63;58.68
66486;BME280;53303;47.476;8.084;2022-08-19T12:47:51;96447.19;;;24.65;57.05
66486;BME280;53303;47.476;8.084;2022-08-19T12:50:18;96453.00;;;24.67;56.72
66486;BME280;53303;47.476;8.084;2022-08-19T12:52:44;96451.00;;;24.62;56.22
66486;BME280;53303;47.476;8.084;2022-08-19T12:55:10;96445.19;;;24.60;56.83
66486;BME280;53303;47.476;8.084;2022-08-19T12:57:36;96453.00;;;24.67;67.72
66486;BME280;53303;47.476;8.084;2022-08-19T13:00:06;96453.53;;;24.60;65.14
66486;BME280;53303;47.476;8.084;2022-08-19T13:02:36;96458.38;;;24.54;61.13
66486;BME280;53303;47.476;8.084;2022-08-19T13:05:05;96456.06;;;24.52;60.10
66486;BME280;53303;47.476;8.084;2022-08-19T13:07:33;96459.66;;;24.47;59.67
66486;BME280;53303;47.476;8.084;2022-08-19T13:10:01;96456.88;;;24.53;59.08
66486;BME280;53303;47.476;8.084;2022-08-19T13:12:26;96455.06;;;24.56;58.71
66486;BME280;53303;47.476;8.084;2022-08-19T13:14:55;96455.31;;;24.52;58.42
66486;BME280;53303;47.476;8.084;2022-08-19T13:17:21;96456.84;;;24.59;58.67
66486;BME280;53303;47.476;8.084;2022-08-19T13:19:47;96447.72;;;24.58;58.79
66486;BME280;53303;47.476;8.084;2022-08-19T13:22:12;96444.16;;;24.58;59.41